Time;durP1;ratioP1;P1;durP2;ratioP2;P2;SDS_P1;SDS_P2;PMS_P1;PMS_P2;Temp;Humidity;BMP_temperature;BMP_pressure;BME280_temperature;BME280_humidity;BME280_pressure;Samples;Min_cycle;Max_cycle;Signal;HPM_P1;HPM_P2
2023/12/05 00:01:50;;;;;;;26.27;15.15;;;;;;;-0.53;62.22;99980.06;7722372;32;37919;-76
2023/12/05 00:06:12;;;;;;;25.83;15.82;;;;;;;-0.05;60.74;99977.50;7735894;32;38233;-77
2023/12/05 00:10:29;;;;;;;27.43;15.63;;;;;;;-0.42;61.36;99983.03;7734181;32;39410;-77
2023/12/05 00:14:46;;;;;;;24.73;15.43;;;;;;;-0.33;61.50;99982.88;7735005;32;39898;-76
2023/12/05 00:19:02;;;;;;;24.70;15.02;;;;;;;0.22;59.64;99972.25;7735582;32;38169;-77
2023/12/05 00:23:19;;;;;;;22.35;13.82;;;;;;;0.15;59.40;99988.31;7735261;32;38384;-76
2023/12/05 00:27:35;;;;;;;29.55;16.12;;;;;;;0.08;60.19;100003.53;7734342;32;39858;-78
2023/12/05 00:31:52;;;;;;;30.92;15.55;;;;;;;0.10;59.84;99996.13;7738387;32;40081;-77
2023/12/05 00:36:09;;;;;;;27.17;15.35;;;;;;;0.04;59.95;99994.25;7738506;32;37640;-76
2023/12/05 00:40:29;;;;;;;25.17;14.93;;;;;;;-0.03;59.85;99992.34;7738566;32;37216;-77
2023/12/05 00:44:46;;;;;;;26.80;15.27;;;;;;;0.12;59.87;99988.72;7738104;32;39379;-77
2023/12/05 00:49:02;;;;;;;32.15;16.05;;;;;;;0.22;59.44;99983.81;7737604;32;40810;-77
2023/12/05 00:53:19;;;;;;;25.70;14.57;;;;;;;-0.12;59.57;99982.81;7736861;32;38644;-77
2023/12/05 00:57:35;;;;;;;28.83;15.73;;;;;;;0.31;58.58;99958.50;7737607;32;37124;-76
2023/12/05 01:01:51;;;;;;;26.02;14.90;;;;;;;-0.36;60.00;99962.69;7737494;32;39366;-77
2023/12/05 01:06:08;;;;;;;26.45;15.30;;;;;;;0.18;58.92;99961.94;7738987;32;40777;-77
2023/12/05 01:10:24;;;;;;;28.73;15.73;;;;;;;-0.15;60.58;99956.41;7736208;32;37928;-77
2023/12/05 01:14:40;;;;;;;26.83;15.05;;;;;;;0.06;60.33;99941.25;7737434;32;37065;-77
2023/12/05 01:18:57;;;;;;;32.22;16.30;;;;;;;0.05;60.71;99944.97;7737342;32;39853;-77
2023/12/05 01:23:13;;;;;;;26.95;14.80;;;;;;;-0.48;62.44;99937.47;7738056;32;39870;-77
2023/12/05 01:27:29;;;;;;;25.77;16.12;;;;;;;-0.13;61.70;99913.34;7736981;32;38746;-76
2023/12/05 01:31:46;;;;;;;29.08;15.15;;;;;;;-0.31;62.50;99895.09;7737259;32;37437;-76
2023/12/05 01:36:07;;;;;;;23.10;14.65;;;;;;;-0.67;63.27;99898.78;7736381;32;40138;-78
2023/12/05 01:40:23;;;;;;;25.67;15.32;;;;;;;-0.41;62.78;99901.66;7737335;32;40587;-76
2023/12/05 01:44:39;;;;;;;29.00;15.15;;;;;;;-0.41;63.12;99876.72;7737959;32;38714;-78
2023/12/05 01:48:56;;;;;;;31.37;15.82;;;;;;;-0.69;63.75;99869.56;7737749;32;37188;-76
2023/12/05 01:53:13;;;;;;;33.97;14.63;;;;;;;-0.22;62.86;99869.81;7737389;32;39406;-77
2023/12/05 01:57:30;;;;;;;29.35;15.27;;;;;;;-0.37;63.32;99869.09;7737034;32;39958;-77
2023/12/05 02:01:49;;;;;;;26.45;15.88;;;;;;;-0.27;63.58;99864.22;7737830;32;38023;-76
2023/12/05 02:06:06;;;;;;;25.50;15.05;;;;;;;-0.51;64.32;99861.00;7736703;32;36685;-78
2023/12/05 02:10:23;;;;;;;25.88;15.30;;;;;;;-0.30;63.71;99856.56;7737543;32;39385;-76
2023/12/05 02:14:39;;;;;;;25.67;14.35;;;;;;;-0.26;63.16;99858.66;7737423;32;39992;-77
2023/12/05 02:19:15;;;;;;;26.87;14.93;;;;;;;0.03;62.39;99855.87;7737295;32;37938;-78
2023/12/05 02:23:57;;;;;;;24.70;15.32;;;;;;;0.01;62.45;99848.03;7736328;32;37319;-77
2023/12/05 02:28:14;;;;;;;27.87;15.43;;;;;;;-0.29;63.64;99850.19;7736183;32;40028;-77
2023/12/05 02:32:31;;;;;;;28.65;15.68;;;;;;;-0.68;64.67;99840.91;7737369;32;39900;-77
2023/12/05 02:37:03;;;;;;;29.73;15.50;;;;;;;-0.95;65.61;99841.59;7737326;32;38658;-77
2023/12/05 02:41:22;;;;;;;27.87;16.33;;;;;;;-0.50;64.12;99835.03;7736774;32;37185;-77
2023/12/05 02:45:39;;;;;;;29.73;15.75;;;;;;;-0.50;64.17;99825.16;7737543;32;38737;-77
2023/12/05 02:49:56;;;;;;;26.98;15.02;;;;;;;-0.32;63.64;99824.63;7737426;32;40795;-77
2023/12/05 02:54:13;;;;;;;27.50;15.68;;;;;;;-0.04;62.68;99818.31;7734672;32;37969;-77
2023/12/05 02:58:30;;;;;;;30.50;15.88;;;;;;;-0.29;63.23;99810.81;7737164;32;37200;-76
2023/12/05 03:02:46;;;;;;;30.37;16.15;;;;;;;-0.40;63.60;99809.56;7734365;32;39225;-77
2023/12/05 03:07:02;;;;;;;28.75;16.25;;;;;;;-0.46;63.79;99798.81;7735682;32;40005;-76
2023/12/05 03:11:19;;;;;;;23.60;14.35;;;;;;;-0.43;63.45;99809.94;7737201;32;37903;-78
2023/12/05 03:15:35;;;;;;;28.75;15.73;;;;;;;-0.37;63.34;99804.81;7736637;32;36955;-78
2023/12/05 03:19:51;;;;;;;29.02;16.67;;;;;;;-0.21;63.21;99807.12;7737019;32;39321;-77
2023/12/05 03:24:08;;;;;;;28.35;16.25;;;;;;;-0.03;62.61;99807.41;7736590;32;40808;-76
2023/12/05 03:28:24;;;;;;;24.60;14.02;;;;;;;-0.16;62.40;99804.69;7736346;32;38720;-77
2023/12/05 03:32:40;;;;;;;27.73;15.90;;;;;;;-0.05;62.28;99805.97;7736554;32;37982;-77
2023/12/05 03:36:57;;;;;;;28.23;16.08;;;;;;;0.13;61.93;99791.97;7736254;32;39869;-77
2023/12/05 03:41:13;;;;;;;27.40;15.52;;;;;;;0.23;61.51;99795.09;7735197;32;40958;-77
2023/12/05 03:45:29;;;;;;;28.17;15.43;;;;;;;0.28;61.27;99797.97;7736052;32;37890;-78
2023/12/05 03:49:46;;;;;;;25.27;14.25;;;;;;;0.06;61.79;99796.50;7735928;32;37181;-77
2023/12/05 03:54:02;;;;;;;27.45;14.73;;;;;;;0.09;62.15;99788.06;7735475;32;39364;-78
2023/12/05 03:58:19;;;;;;;27.17;14.43;;;;;;;0.32;61.20;99780.44;7735718;32;40742;-78
2023/12/05 04:02:35;;;;;;;26.23;14.95;;;;;;;0.31;60.97;99772.59;7735341;32;37718;-78
2023/12/05 04:06:52;;;;;;;25.80;14.77;;;;;;;0.05;61.95;99779.56;7738197;32;37092;-79
2023/12/05 04:11:08;;;;;;;28.80;15.15;;;;;;;0.23;61.47;99773.63;7738316;32;40141;-78
2023/12/05 04:15:24;;;;;;;27.50;14.87;;;;;;;0.01;61.89;99769.47;7738149;32;40828;-78
2023/12/05 04:19:40;;;;;;;31.85;16.65;;;;;;;0.24;61.87;99759.19;7738135;32;37847;-78
2023/12/05 04:23:57;;;;;;;27.30;14.52;;;;;;;0.46;60.68;99748.28;7739164;32;38145;-78
2023/12/05 04:28:13;;;;;;;26.20;15.27;;;;;;;0.06;62.05;99753.59;7737286;32;39449;-78
2023/12/05 04:32:30;;;;;;;28.20;15.93;;;;;;;0.35;61.24;99763.13;7738283;32;40027;-78
2023/12/05 04:36:46;;;;;;;27.23;14.02;;;;;;;0.31;61.26;99762.72;7729966;32;38005;-78
2023/12/05 04:41:03;;;;;;;28.48;14.45;;;;;;;0.23;61.65;99765.59;7737485;32;37178;-78
2023/12/05 04:45:20;;;;;;;26.20;14.20;;;;;;;0.36;61.29;99762.94;7732888;32;39371;-78
2023/12/05 04:49:36;;;;;;;26.48;13.80;;;;;;;0.31;60.92;99749.31;7736875;32;40211;-78
2023/12/05 04:53:52;;;;;;;26.50;14.10;;;;;;;0.37;60.56;99750.34;7736577;32;37567;-78
2023/12/05 04:58:09;;;;;;;25.42;14.27;;;;;;;0.67;59.80;99756.13;7736787;32;37963;-78
2023/12/05 05:02:25;;;;;;;27.95;14.93;;;;;;;0.55;59.88;99757.75;7737138;32;39122;-78
2023/12/05 05:06:41;;;;;;;24.98;14.30;;;;;;;0.15;60.99;99761.22;7737570;32;40251;-78
2023/12/05 05:10:58;;;;;;;25.92;15.15;;;;;;;0.49;60.27;99753.22;7736951;32;37821;-78
2023/12/05 05:15:14;;;;;;;28.42;14.90;;;;;;;0.44;60.13;99744.97;7736594;32;37279;-78
2023/12/05 05:19:34;;;;;;;29.02;14.87;;;;;;;0.31;60.66;99752.00;7737025;32;39931;-78
2023/12/05 05:23:50;;;;;;;29.12;14.80;;;;;;;0.48;60.14;99752.38;7736854;32;39996;-78
2023/12/05 05:28:09;;;;;;;27.23;15.05;;;;;;;0.40;60.44;99757.13;7737978;32;37824;-78
2023/12/05 05:32:25;;;;;;;25.60;14.70;;;;;;;0.49;60.24;99754.03;7736134;32;37502;-78
2023/12/05 05:36:42;;;;;;;28.45;14.95;;;;;;;0.30;60.63;99758.38;7737379;32;39261;-78
2023/12/05 05:41:06;;;;;;;27.55;15.35;;;;;;;0.32;60.65;99759.00;7737268;32;39668;-78
2023/12/05 05:45:22;;;;;;;30.35;16.42;;;;;;;0.73;59.48;99746.41;7737254;32;37257;-78
2023/12/05 05:49:39;;;;;;;24.85;14.73;;;;;;;0.64;59.25;99756.53;7737068;32;37488;-79
2023/12/05 05:53:57;;;;;;;27.10;14.77;;;;;;;0.08;61.47;99773.81;7720330;32;39502;-78
2023/12/05 05:58:14;;;;;;;31.33;15.95;;;;;;;0.57;60.12;99766.44;7734661;32;42117;-78
2023/12/05 06:02:30;;;;;;;24.70;14.23;;;;;;;0.66;59.59;99762.50;7737653;32;38820;-77
2023/12/05 06:06:46;;;;;;;24.58;14.38;;;;;;;0.69;59.54;99761.25;7737099;32;38196;-78
2023/12/05 06:11:03;;;;;;;30.37;15.55;;;;;;;0.50;59.48;99760.22;7737507;32;39323;-78
2023/12/05 06:15:19;;;;;;;27.77;15.02;;;;;;;0.71;59.09;99762.72;7733877;32;39837;-78
2023/12/05 06:19:35;;;;;;;30.98;15.70;;;;;;;0.53;59.91;99763.31;7735567;32;37849;-79
2023/12/05 06:23:54;;;;;;;28.15;15.43;;;;;;;0.48;60.12;99756.94;7737549;32;37177;-79
2023/12/05 06:28:10;;;;;;;29.40;15.50;;;;;;;0.61;59.94;99769.53;7741529;32;39194;-79
2023/12/05 06:32:26;;;;;;;27.85;15.48;;;;;;;0.28;60.38;99763.13;7738027;32;40059;-81
2023/12/05 06:36:43;;;;;;;31.65;15.95;;;;;;;0.67;59.54;99766.84;7737881;32;37868;-80
2023/12/05 06:40:59;;;;;;;26.85;14.45;;;;;;;0.61;59.32;99764.97;7737815;32;37030;-79
2023/12/05 06:45:15;;;;;;;29.98;16.08;;;;;;;0.90;58.86;99768.25;7736963;32;39356;-77
2023/12/05 06:49:32;;;;;;;24.27;15.65;;;;;;;0.77;59.04;99773.66;7736706;32;38409;-77
2023/12/05 06:53:48;;;;;;;27.52;14.85;;;;;;;0.81;58.90;99766.81;7737677;32;37931;-77
2023/12/05 06:58:06;;;;;;;29.60;14.63;;;;;;;0.88;58.81;99773.84;7737691;32;37988;-78
2023/12/05 07:02:22;;;;;;;30.58;15.93;;;;;;;0.88;58.84;99756.87;7737680;32;39335;-80
2023/12/05 07:06:38;;;;;;;29.98;16.12;;;;;;;0.70;58.91;99762.91;7737592;32;40191;-80
2023/12/05 07:10:57;;;;;;;31.85;16.12;;;;;;;0.78;58.89;99761.84;7737280;32;38143;-79
2023/12/05 07:15:13;;;;;;;29.40;15.45;;;;;;;0.74;59.74;99759.63;7737614;32;38010;-78
2023/12/05 07:19:29;;;;;;;26.17;15.50;;;;;;;1.03;58.95;99765.53;7737325;32;40170;-78
2023/12/05 07:23:46;;;;;;;29.52;16.65;;;;;;;0.95;58.87;99768.47;7737289;32;39675;-78
2023/12/05 07:28:15;;;;;;;30.90;15.82;;;;;;;0.91;58.88;99767.22;7737046;32;37635;-81
2023/12/05 07:32:31;;;;;;;27.92;15.82;;;;;;;0.91;59.15;99773.44;7736790;32;37227;-79
2023/12/05 07:36:48;;;;;;;28.05;16.12;;;;;;;0.78;59.71;99780.63;7736630;32;39258;-78
2023/12/05 07:41:04;;;;;;;28.60;15.55;;;;;;;0.81;59.59;99778.41;7739616;32;40066;-78
2023/12/05 07:45:21;;;;;;;27.17;15.77;;;;;;;1.18;58.46;99781.41;7739799;32;38429;-80
2023/12/05 07:49:37;;;;;;;28.92;16.17;;;;;;;1.26;58.57;99791.94;7740228;32;37013;-79
2023/12/05 07:53:53;;;;;;;32.72;16.23;;;;;;;1.08;58.86;99773.78;7739435;32;39633;-79
2023/12/05 07:58:10;;;;;;;28.08;15.73;;;;;;;1.30;58.45;99787.78;7739438;32;40792;-80
2023/12/05 08:02:26;;;;;;;29.63;16.85;;;;;;;1.21;58.54;99781.00;7739360;32;38004;-80
2023/12/05 08:06:42;;;;;;;30.48;16.27;;;;;;;1.34;58.68;99776.62;7739722;32;38059;-79
2023/12/05 08:10:59;;;;;;;28.35;17.12;;;;;;;0.91;59.78;99775.28;7739578;32;40051;-79
2023/12/05 08:15:15;;;;;;;29.77;16.00;;;;;;;1.22;59.26;99779.13;7739777;32;40608;-79
2023/12/05 08:19:31;;;;;;;27.33;16.40;;;;;;;1.17;59.19;99776.25;7739538;32;38659;-79
2023/12/05 08:23:48;;;;;;;28.70;15.95;;;;;;;0.90;61.90;99766.41;7739278;32;37204;-73
2023/12/05 08:28:04;;;;;;;33.55;15.95;;;;;;;1.50;61.58;99766.22;7739359;32;39334;-76
2023/12/05 08:32:21;;;;;;;30.15;16.75;;;;;;;1.40;60.53;99760.47;7739502;32;40042;-79
2023/12/05 08:36:37;;;;;;;27.90;15.68;;;;;;;1.25;60.02;99763.41;7739262;32;37622;-79
2023/12/05 08:40:53;;;;;;;28.15;17.10;;;;;;;1.50;59.19;99774.28;7739465;32;37641;-79
2023/12/05 08:45:12;;;;;;;30.25;16.17;;;;;;;1.72;58.70;99773.16;7739545;32;39360;-81
2023/12/05 08:49:29;;;;;;;30.33;16.15;;;;;;;1.54;58.98;99761.25;7737302;32;39877;-78
2023/12/05 08:53:46;;;;;;;33.78;16.70;;;;;;;1.66;58.76;99756.03;7738387;32;37790;-78
2023/12/05 08:58:03;;;;;;;25.60;15.50;;;;;;;1.87;57.98;99777.22;7739226;32;37957;-77
2023/12/05 09:02:24;;;;;;;31.33;16.80;;;;;;;2.12;57.45;99768.41;7739116;32;39263;-77
2023/12/05 09:06:40;;;;;;;29.77;17.17;;;;;;;1.88;57.92;99778.88;7738677;32;40287;-76
2023/12/05 09:10:57;;;;;;;30.33;15.80;;;;;;;2.03;57.53;99767.00;7738869;32;38425;-75
2023/12/05 09:15:14;;;;;;;27.27;15.57;;;;;;;2.31;57.24;99780.06;7738881;32;38026;-76
2023/12/05 09:19:30;;;;;;;29.60;16.12;;;;;;;2.41;56.64;99771.50;7739028;32;39255;-77
2023/12/05 09:23:47;;;;;;;28.50;16.48;;;;;;;2.31;56.61;99763.94;7738803;32;39883;-77
2023/12/05 09:28:03;;;;;;;26.65;14.25;;;;;;;2.29;56.84;99763.28;7738573;32;38092;-77
2023/12/05 09:32:20;;;;;;;33.17;16.55;;;;;;;2.49;55.81;99748.87;7738836;32;37297;-76
2023/12/05 09:36:36;;;;;;;29.05;15.48;;;;;;;2.23;56.79;99746.16;7738771;32;39646;-76
2023/12/05 09:40:53;;;;;;;28.62;16.92;;;;;;;2.67;57.23;99754.28;7738646;32;40777;-76
2023/12/05 09:45:13;;;;;;;30.83;17.87;;;;;;;2.21;56.99;99753.62;7737667;32;38491;-77
2023/12/05 09:49:31;;;;;;;29.98;17.35;;;;;;;1.74;57.93;99745.00;7736936;32;36810;-77
2023/12/05 09:53:48;;;;;;;28.08;16.23;;;;;;;1.67;58.50;99750.44;7738714;32;39286;-77
2023/12/05 09:58:04;;;;;;;31.42;17.37;;;;;;;2.41;56.58;99747.28;7738409;32;40025;-78
2023/12/05 10:02:23;;;;;;;32.67;15.48;;;;;;;1.88;57.82;99735.03;7737360;32;38627;-77
2023/12/05 10:06:39;;;;;;;30.88;17.85;;;;;;;2.19;57.32;99723.44;7738403;32;36536;-77
2023/12/05 10:10:59;;;;;;;31.10;16.42;;;;;;;1.86;57.74;99712.91;7737051;32;39397;-76
2023/12/05 10:15:16;;;;;;;30.30;16.92;;;;;;;2.18;56.94;99712.91;7736799;32;39799;-75
2023/12/05 10:19:33;;;;;;;31.90;16.85;;;;;;;2.11;57.38;99710.25;7738056;32;38744;-75
2023/12/05 10:23:51;;;;;;;26.45;14.95;;;;;;;2.20;56.66;99700.06;7738216;32;38027;-74
2023/12/05 10:28:08;;;;;;;33.92;18.55;;;;;;;2.63;65.96;99689.31;7736788;32;40102;-75
2023/12/05 10:32:27;;;;;;;30.45;16.73;;;;;;;3.27;59.87;99672.06;7738229;32;40976;-75
2023/12/05 10:36:59;;;;;;;30.20;16.62;;;;;;;2.86;55.62;99671.69;7737817;32;38842;-75
2023/12/05 10:41:23;;;;;;;31.62;16.95;;;;;;;2.79;55.75;99657.47;7736978;32;37250;-75
2023/12/05 10:45:39;;;;;;;27.48;15.65;;;;;;;2.55;56.79;99648.41;7737849;32;39559;-76
2023/12/05 10:49:56;;;;;;;29.12;17.48;;;;;;;2.12;57.17;99651.91;7737646;32;40781;-75
2023/12/05 10:54:13;;;;;;;32.60;17.23;;;;;;;2.72;55.72;99648.66;7737602;32;38301;-75
2023/12/05 10:58:29;;;;;;;28.02;17.08;;;;;;;2.75;55.31;99648.22;7736431;32;36982;-76
2023/12/05 11:02:48;;;;;;;29.45;15.85;;;;;;;2.39;56.84;99656.00;7737738;32;39308;-75
2023/12/05 11:07:04;;;;;;;28.60;15.50;;;;;;;2.34;56.89;99653.16;7737582;32;40056;-75
2023/12/05 11:11:21;;;;;;;30.67;17.33;;;;;;;2.52;57.15;99649.69;7737455;32;37964;-76
2023/12/05 11:15:39;;;;;;;34.03;17.77;;;;;;;2.54;58.76;99652.97;7736250;32;37407;-73
2023/12/05 11:20:23;;;;;;;25.40;14.65;;;;;;;2.84;55.91;99654.94;7737384;32;38766;-76
2023/12/05 11:25:10;;;;;;;29.27;16.15;;;;;;;3.07;55.46;99656.13;7737293;32;40092;-76
2023/12/05 11:29:43;;;;;;;31.15;16.10;;;;;;;2.87;55.30;99656.38;7726697;32;38641;-76
2023/12/05 11:34:15;;;;;;;27.83;16.35;;;;;;;2.95;55.21;99642.59;7723205;32;38128;-76
2023/12/05 11:38:32;;;;;;;30.00;16.73;;;;;;;3.13;55.56;99629.09;7732359;32;39309;-75
2023/12/05 11:43:05;;;;;;;30.52;15.98;;;;;;;3.28;54.32;99627.91;7736889;32;40865;-74
2023/12/05 11:47:28;;;;;;;32.65;17.10;;;;;;;2.57;56.38;99643.63;7736169;32;38676;-76
2023/12/05 11:51:51;;;;;;;33.08;16.65;;;;;;;2.70;56.24;99640.78;7736611;32;37186;-75
2023/12/05 11:56:19;;;;;;;31.83;16.27;;;;;;;2.90;55.90;99629.81;7735022;32;39470;-72
2023/12/05 12:00:38;;;;;;;30.00;16.48;;;;;;;2.75;55.92;99632.88;7721864;32;40715;-75
2023/12/05 12:05:03;;;;;;;31.17;17.37;;;;;;;2.58;56.66;99638.03;7709483;32;39927;-76
2023/12/05 12:09:20;;;;;;;29.35;17.08;;;;;;;2.87;58.82;99634.81;7709460;32;36443;-74
2023/12/05 12:13:37;;;;;;;31.75;17.33;;;;;;;2.96;55.98;99634.28;7709191;32;39415;-75
2023/12/05 12:17:53;;;;;;;30.27;16.40;;;;;;;3.18;57.68;99620.34;7709009;32;39676;-74
2023/12/05 12:22:12;;;;;;;33.63;18.58;;;;;;;3.33;54.61;99617.25;7707837;32;37814;-75
2023/12/05 12:26:32;;;;;;;28.42;16.87;;;;;;;2.74;56.27;99631.25;7711744;32;37234;-75
2023/12/05 12:30:50;;;;;;;33.88;16.73;;;;;;;2.47;56.88;99625.31;7712509;32;40077;-75
2023/12/05 12:35:07;;;;;;;34.40;17.58;;;;;;;2.35;57.38;99625.22;7711575;32;39998;-75
2023/12/05 12:39:25;;;;;;;30.33;16.60;;;;;;;2.27;57.45;99630.06;7712454;32;37711;-76
2023/12/05 12:43:48;;;;;;;27.35;16.73;;;;;;;2.49;56.80;99622.41;7712645;32;37330;-75
2023/12/05 12:48:05;;;;;;;30.77;16.85;;;;;;;2.54;56.78;99615.31;7712555;32;39451;-76
2023/12/05 12:52:22;;;;;;;30.00;16.02;;;;;;;2.70;56.76;99623.84;7712308;32;40022;-76
2023/12/05 12:56:41;;;;;;;36.03;17.20;;;;;;;2.67;57.10;99626.97;7712255;32;38014;-76
2023/12/05 13:00:57;;;;;;;32.58;16.60;;;;;;;2.89;55.91;99628.16;7712387;32;37390;-76
2023/12/05 13:05:14;;;;;;;30.37;15.07;;;;;;;2.84;56.22;99630.69;7712318;32;39385;-75
2023/12/05 13:09:31;;;;;;;32.75;17.70;;;;;;;3.07;55.60;99616.56;7712287;32;40642;-75
2023/12/05 13:13:47;;;;;;;33.10;17.62;;;;;;;2.79;56.56;99611.69;7712140;32;37915;-76
2023/12/05 13:18:08;;;;;;;30.60;17.12;;;;;;;2.76;56.02;99614.84;7712075;32;38094;-76
2023/12/05 13:22:24;;;;;;;30.67;17.30;;;;;;;2.61;56.83;99609.84;7712173;32;39371;-76
2023/12/05 13:26:41;;;;;;;28.87;16.65;;;;;;;2.73;56.68;99618.00;7712000;32;40647;-76
2023/12/05 13:30:57;;;;;;;30.67;17.02;;;;;;;2.89;56.17;99620.06;7711605;32;38565;-76
2023/12/05 13:35:14;;;;;;;39.10;17.62;;;;;;;2.88;56.33;99623.00;7711537;32;37916;-76
2023/12/05 13:39:30;;;;;;;32.35;17.30;;;;;;;2.80;56.80;99619.56;7711447;32;40188;-76
2023/12/05 13:43:46;;;;;;;32.90;17.23;;;;;;;3.07;56.18;99618.41;7711716;32;40787;-76
2023/12/05 13:48:06;;;;;;;29.02;16.62;;;;;;;2.97;56.15;99624.34;7711827;32;38675;-77
2023/12/05 13:52:23;;;;;;;32.40;16.35;;;;;;;2.93;56.36;99617.75;7711849;32;37232;-76
2023/12/05 13:56:39;;;;;;;32.28;17.48;;;;;;;2.95;56.26;99608.41;7711683;32;39100;-76
2023/12/05 14:00:55;;;;;;;35.17;18.00;;;;;;;3.15;55.88;99607.31;7711641;32;40307;-76
2023/12/05 14:05:12;;;;;;;27.25;16.25;;;;;;;2.69;57.29;99609.56;7711682;32;37847;-76
2023/12/05 14:09:30;;;;;;;32.45;18.58;;;;;;;2.51;57.96;99612.22;7714927;32;37255;-76
2023/12/05 14:13:48;;;;;;;32.72;17.42;;;;;;;2.65;57.36;99615.59;7724296;32;40065;-76
2023/12/05 14:18:08;;;;;;;31.55;17.27;;;;;;;2.61;57.90;99624.12;7723406;32;39653;-76
2023/12/05 14:22:26;;;;;;;39.45;17.92;;;;;;;2.85;57.30;99626.16;7724364;32;36411;-76
2023/12/05 14:26:43;;;;;;;32.20;16.50;;;;;;;2.63;57.78;99624.72;7722068;32;37421;-76
2023/12/05 14:31:01;;;;;;;35.30;18.75;;;;;;;2.56;58.20;99623.16;7725303;32;40113;-76
2023/12/05 14:35:21;;;;;;;32.85;16.73;;;;;;;2.04;59.83;99634.19;7723195;32;40906;-76
2023/12/05 14:39:38;;;;;;;31.08;17.05;;;;;;;2.66;58.14;99634.22;7722726;32;37842;-76
2023/12/05 14:43:54;;;;;;;28.27;15.52;;;;;;;2.79;57.51;99627.84;7722826;32;37188;-76
2023/12/05 14:48:13;;;;;;;33.58;16.08;;;;;;;2.81;57.05;99628.44;7730821;32;40131;-75
2023/12/05 14:52:31;;;;;;;30.67;16.35;;;;;;;2.82;58.31;99630.09;7737216;32;40067;-76
2023/12/05 14:56:47;;;;;;;29.33;16.58;;;;;;;2.61;57.91;99640.28;7737018;32;37794;-76
2023/12/05 15:01:04;;;;;;;30.15;16.90;;;;;;;2.71;57.32;99636.22;7737052;32;37209;-75
2023/12/05 15:05:20;;;;;;;30.20;16.55;;;;;;;3.12;55.77;99632.03;7737320;32;39917;-75
2023/12/05 15:09:37;;;;;;;37.85;17.25;;;;;;;2.90;56.78;99642.44;7736553;32;40849;-75
2023/12/05 15:13:54;;;;;;;34.58;17.92;;;;;;;2.77;57.01;99640.72;7736897;32;37834;-75
2023/12/05 15:18:12;;;;;;;29.73;16.85;;;;;;;3.19;55.95;99638.97;7736706;32;37178;-75
2023/12/05 15:22:30;;;;;;;33.38;17.75;;;;;;;2.85;56.43;99642.31;7736869;32;39272;-75
2023/12/05 15:26:47;;;;;;;27.13;15.77;;;;;;;2.61;56.83;99650.22;7736448;32;38959;-76
2023/12/05 15:31:06;;;;;;;30.80;16.65;;;;;;;2.91;55.90;99646.78;7736467;32;37974;-75
2023/12/05 15:35:23;;;;;;;28.65;15.68;;;;;;;2.65;56.51;99653.28;7735539;32;37962;-76
2023/12/05 15:39:40;;;;;;;34.65;17.25;;;;;;;2.77;56.29;99640.72;7735971;32;39485;-75
2023/12/05 15:43:56;;;;;;;30.05;17.05;;;;;;;2.49;57.14;99652.81;7736395;32;40496;-76
2023/12/05 15:48:13;;;;;;;28.90;15.10;;;;;;;2.47;57.21;99652.22;7735768;32;37656;-76
2023/12/05 15:52:49;;;;;;;29.90;16.50;;;;;;;2.83;56.38;99634.47;7735727;32;37646;-75
2023/12/05 15:57:06;;;;;;;34.85;17.67;;;;;;;2.78;56.25;99640.50;7734791;32;40017;-75
2023/12/05 16:01:24;;;;;;;29.55;16.40;;;;;;;2.72;56.37;99648.66;7738056;32;40689;-75
2023/12/05 16:05:42;;;;;;;29.35;16.55;;;;;;;3.05;55.57;99644.75;7739177;32;37988;-76
2023/12/05 16:09:59;;;;;;;33.72;17.92;;;;;;;2.78;56.18;99645.06;7739555;32;37174;-75
2023/12/05 16:14:16;;;;;;;29.75;16.37;;;;;;;2.57;57.01;99646.31;7739261;32;40257;-75
2023/12/05 16:18:32;;;;;;;33.13;17.05;;;;;;;2.67;56.57;99645.81;7738950;32;39930;-76
2023/12/05 16:22:50;;;;;;;31.55;16.20;;;;;;;2.80;56.42;99640.28;7739153;32;37995;-76
2023/12/05 16:27:07;;;;;;;33.05;16.95;;;;;;;2.75;56.07;99632.88;7739348;32;37659;-75
2023/12/05 16:31:23;;;;;;;28.85;16.40;;;;;;;2.57;56.82;99632.84;7738604;32;40063;-75
2023/12/05 16:35:40;;;;;;;31.15;17.35;;;;;;;2.63;56.86;99646.25;7738699;32;40021;-75
2023/12/05 16:39:56;;;;;;;32.80;17.58;;;;;;;2.43;57.15;99646.47;7738771;32;38761;-75
2023/12/05 16:44:12;;;;;;;30.67;17.70;;;;;;;2.80;56.41;99635.72;7734918;32;38089;-75
2023/12/05 16:48:29;;;;;;;29.37;15.88;;;;;;;2.95;56.01;99631.81;7737584;32;39223;-75
2023/12/05 16:52:45;;;;;;;28.20;16.65;;;;;;;2.17;57.86;99642.13;7733603;32;39968;-76
2023/12/05 16:57:02;;;;;;;28.75;16.60;;;;;;;2.68;56.62;99631.31;7722497;32;37728;-75
2023/12/05 17:01:18;;;;;;;28.75;16.85;;;;;;;2.75;56.26;99637.44;7736813;32;38043;-75
2023/12/05 17:05:35;;;;;;;32.13;17.10;;;;;;;2.57;56.90;99625.63;7732602;32;40102;-76
2023/12/05 17:09:52;;;;;;;34.50;17.42;;;;;;;2.64;57.16;99636.31;7738271;32;40627;-76
2023/12/05 17:14:08;;;;;;;30.67;16.52;;;;;;;2.55;56.99;99632.25;7737721;32;37880;-76
2023/12/05 17:18:25;;;;;;;29.02;15.95;;;;;;;2.70;56.50;99635.41;7738357;32;37225;-75
2023/12/05 17:22:42;;;;;;;34.90;17.42;;;;;;;2.28;57.81;99643.31;7738467;32;39278;-75
2023/12/05 17:26:58;;;;;;;31.15;17.23;;;;;;;2.65;56.89;99631.75;7737945;32;40207;-75
2023/12/05 17:31:14;;;;;;;32.30;17.35;;;;;;;2.76;56.47;99636.38;7738582;32;37991;-75
2023/12/05 17:35:31;;;;;;;39.08;19.33;;;;;;;2.50;57.06;99641.03;7738533;32;37990;-75
2023/12/05 17:39:47;;;;;;;34.40;18.33;;;;;;;2.46;57.20;99645.19;7737863;32;39984;-75
2023/12/05 17:44:04;;;;;;;31.95;18.02;;;;;;;2.47;57.32;99646.00;7738183;32;40824;-75
2023/12/05 17:48:21;;;;;;;30.95;17.40;;;;;;;2.76;56.80;99641.75;7737798;32;37981;-75
2023/12/05 17:52:37;;;;;;;30.55;17.77;;;;;;;2.44;57.24;99639.22;7738068;32;36987;-76
2023/12/05 17:56:54;;;;;;;35.28;18.12;;;;;;;2.53;57.84;99645.94;7738039;32;39477;-76
2023/12/05 18:01:10;;;;;;;33.92;19.10;;;;;;;2.14;58.87;99663.25;7737652;32;40566;-76
2023/12/05 18:05:27;;;;;;;31.85;18.40;;;;;;;2.66;57.58;99663.00;7736600;32;38468;-75
2023/12/05 18:09:45;;;;;;;34.28;18.42;;;;;;;2.88;56.77;99648.06;7737873;32;37921;-76
2023/12/05 18:14:01;;;;;;;34.88;18.95;;;;;;;2.88;56.89;99656.16;7737853;32;39943;-75
2023/12/05 18:18:17;;;;;;;33.95;19.50;;;;;;;2.94;56.81;99652.53;7736016;32;40746;-77
2023/12/05 18:22:34;;;;;;;32.55;18.60;;;;;;;2.36;58.50;99661.00;7736633;32;37553;-75
2023/12/05 18:26:52;;;;;;;29.90;18.33;;;;;;;2.57;57.60;99657.91;7734111;32;37205;-77
2023/12/05 18:31:10;;;;;;;34.97;18.12;;;;;;;2.75;57.44;99658.97;7681385;32;38995;-76
2023/12/05 18:35:26;;;;;;;40.15;17.77;;;;;;;2.38;58.02;99667.84;7660410;32;40773;-75
2023/12/05 18:39:43;;;;;;;34.58;18.45;;;;;;;2.73;57.16;99658.37;7684213;32;38638;-76
2023/12/05 18:43:59;;;;;;;31.83;17.58;;;;;;;2.78;57.33;99663.94;7683245;32;37266;-76
2023/12/05 18:48:16;;;;;;;34.60;19.12;;;;;;;2.56;57.49;99664.34;7684629;32;40071;-77
2023/12/05 18:52:32;;;;;;;37.08;17.48;;;;;;;2.52;57.54;99665.00;7684342;32;40904;-76
2023/12/05 18:56:49;;;;;;;39.17;19.17;;;;;;;2.22;58.10;99661.12;7659849;32;200796;-77
2023/12/05 19:01:05;;;;;;;36.60;18.98;;;;;;;2.55;57.92;99660.03;7668820;32;37132;-78
2023/12/05 19:05:21;;;;;;;31.37;17.27;;;;;;;2.68;57.52;99661.75;7661440;32;39378;-78
2023/12/05 19:09:38;;;;;;;35.25;19.20;;;;;;;2.56;57.94;99650.87;7658396;32;40906;-76
2023/12/05 19:13:55;;;;;;;30.65;18.17;;;;;;;2.62;57.78;99652.69;7683179;32;37714;-77
2023/12/05 19:18:12;;;;;;;32.70;18.25;;;;;;;2.62;58.19;99652.69;7675084;32;37001;-77
2023/12/05 19:22:28;;;;;;;37.55;18.77;;;;;;;2.51;58.65;99653.41;7674590;32;40126;-77
2023/12/05 19:26:45;;;;;;;36.08;18.98;;;;;;;2.79;58.01;99644.00;7668978;32;39819;-77
2023/12/05 19:31:02;;;;;;;36.63;18.92;;;;;;;2.52;58.65;99648.84;7729279;32;38732;-78
2023/12/05 19:35:21;;;;;;;35.58;18.12;;;;;;;2.67;58.63;99643.13;7710403;32;37426;-76
2023/12/05 19:39:39;;;;;;;34.75;18.98;;;;;;;2.71;58.35;99641.59;7722436;32;40095;-77
2023/12/05 19:43:56;;;;;;;40.80;19.20;;;;;;;2.72;58.48;99638.69;7722004;32;40803;-76
2023/12/05 19:48:13;;;;;;;38.58;19.10;;;;;;;2.97;57.44;99645.91;7724192;32;37974;-78
2023/12/05 19:52:33;;;;;;;39.70;18.90;;;;;;;2.66;58.60;99649.53;7722815;32;36200;-76
2023/12/05 19:56:49;;;;;;;40.42;20.23;;;;;;;2.39;59.15;99653.31;7722276;32;39195;-79